sensor_id;sensor_type;location;lat;lon;timestamp;P1;durP1;ratioP1;P2;durP2;ratioP2
48403;SDS011;34202;52.536;6.042;2023-09-07T00:01:47;7.70;;;4.70;;
48403;SDS011;34202;52.536;6.042;2023-09-07T00:06:47;5.20;;;4.70;;
48403;SDS011;34202;52.536;6.042;2023-09-07T00:11:49;6.20;;;4.70;;
48403;SDS011;34202;52.536;6.042;2023-09-07T00:16:50;5.40;;;4.20;;
48403;SDS011;34202;52.536;6.042;2023-09-07T00:21:50;5.00;;;4.40;;
48403;SDS011;34202;52.536;6.042;2023-09-07T00:26:52;4.90;;;4.50;;
48403;SDS011;34202;52.536;6.042;2023-09-07T00:31:52;6.60;;;5.30;;
48403;SDS011;34202;52.536;6.042;2023-09-07T00:36:52;6.20;;;5.00;;
48403;SDS011;34202;52.536;6.042;2023-09-07T00:41:53;9.80;;;4.70;;
48403;SDS011;34202;52.536;6.042;2023-09-07T00:46:53;6.40;;;4.50;;
48403;SDS011;34202;52.536;6.042;2023-09-07T00:51:53;8.50;;;5.50;;
48403;SDS011;34202;52.536;6.042;2023-09-07T00:56:54;6.90;;;4.30;;
48403;SDS011;34202;52.536;6.042;2023-09-07T01:01:55;5.10;;;4.30;;
48403;SDS011;34202;52.536;6.042;2023-09-07T01:06:56;5.40;;;4.60;;
48403;SDS011;34202;52.536;6.042;2023-09-07T01:12:01;4.90;;;3.90;;
48403;SDS011;34202;52.536;6.042;2023-09-07T01:17:03;6.20;;;3.90;;
48403;SDS011;34202;52.536;6.042;2023-09-07T01:22:08;6.40;;;4.10;;
48403;SDS011;34202;52.536;6.042;2023-09-07T01:27:09;5.30;;;4.70;;
48403;SDS011;34202;52.536;6.042;2023-09-07T01:32:10;7.10;;;4.70;;
48403;SDS011;34202;52.536;6.042;2023-09-07T01:37:10;4.20;;;3.70;;
48403;SDS011;34202;52.536;6.042;2023-09-07T01:42:11;5.20;;;4.60;;
48403;SDS011;34202;52.536;6.042;2023-09-07T01:47:11;4.40;;;4.00;;
48403;SDS011;34202;52.536;6.042;2023-09-07T01:52:11;5.10;;;4.00;;
48403;SDS011;34202;52.536;6.042;2023-09-07T01:57:12;5.20;;;4.30;;
48403;SDS011;34202;52.536;6.042;2023-09-07T02:02:12;6.90;;;4.20;;
48403;SDS011;34202;52.536;6.042;2023-09-07T02:07:13;7.10;;;4.70;;
48403;SDS011;34202;52.536;6.042;2023-09-07T02:12:14;5.30;;;4.60;;
48403;SDS011;34202;52.536;6.042;2023-09-07T02:17:15;8.50;;;5.20;;
48403;SDS011;34202;52.536;6.042;2023-09-07T02:22:17;7.60;;;4.70;;
48403;SDS011;34202;52.536;6.042;2023-09-07T02:27:18;5.30;;;4.60;;
48403;SDS011;34202;52.536;6.042;2023-09-07T02:32:18;5.70;;;4.20;;
48403;SDS011;34202;52.536;6.042;2023-09-07T02:37:19;7.10;;;4.90;;
48403;SDS011;34202;52.536;6.042;2023-09-07T02:42:19;7.20;;;4.30;;
48403;SDS011;34202;52.536;6.042;2023-09-07T02:47:20;7.30;;;4.80;;
48403;SDS011;34202;52.536;6.042;2023-09-07T02:52:21;5.00;;;4.30;;
48403;SDS011;34202;52.536;6.042;2023-09-07T02:57:22;7.00;;;4.10;;
48403;SDS011;34202;52.536;6.042;2023-09-07T03:02:23;5.90;;;5.10;;
48403;SDS011;34202;52.536;6.042;2023-09-07T03:07:23;5.90;;;4.30;;
48403;SDS011;34202;52.536;6.042;2023-09-07T03:12:23;5.00;;;4.40;;
48403;SDS011;34202;52.536;6.042;2023-09-07T03:17:24;5.90;;;4.70;;
48403;SDS011;34202;52.536;6.042;2023-09-07T03:22:24;5.90;;;4.60;;
48403;SDS011;34202;52.536;6.042;2023-09-07T03:27:25;6.00;;;4.80;;
48403;SDS011;34202;52.536;6.042;2023-09-07T03:32:25;6.70;;;4.70;;
48403;SDS011;34202;52.536;6.042;2023-09-07T03:37:28;5.20;;;4.70;;
48403;SDS011;34202;52.536;6.042;2023-09-07T03:42:29;6.60;;;4.80;;
48403;SDS011;34202;52.536;6.042;2023-09-07T03:47:29;8.00;;;5.40;;
48403;SDS011;34202;52.536;6.042;2023-09-07T03:52:30;5.90;;;4.60;;
48403;SDS011;34202;52.536;6.042;2023-09-07T03:57:30;5.40;;;4.70;;
48403;SDS011;34202;52.536;6.042;2023-09-07T04:02:30;6.00;;;5.40;;
48403;SDS011;34202;52.536;6.042;2023-09-07T04:07:31;7.30;;;5.40;;
48403;SDS011;34202;52.536;6.042;2023-09-07T04:12:32;6.70;;;5.30;;
48403;SDS011;34202;52.536;6.042;2023-09-07T04:17:33;6.10;;;5.30;;
48403;SDS011;34202;52.536;6.042;2023-09-07T04:22:40;11.60;;;6.00;;
48403;SDS011;34202;52.536;6.042;2023-09-07T04:27:40;6.20;;;5.30;;
48403;SDS011;34202;52.536;6.042;2023-09-07T04:32:41;6.70;;;4.70;;
48403;SDS011;34202;52.536;6.042;2023-09-07T04:37:41;6.30;;;5.50;;
48403;SDS011;34202;52.536;6.042;2023-09-07T04:42:43;6.50;;;5.50;;
48403;SDS011;34202;52.536;6.042;2023-09-07T04:47:43;6.30;;;5.70;;
48403;SDS011;34202;52.536;6.042;2023-09-07T04:52:44;5.90;;;5.40;;
48403;SDS011;34202;52.536;6.042;2023-09-07T04:57:44;8.50;;;5.90;;
48403;SDS011;34202;52.536;6.042;2023-09-07T05:02:45;10.80;;;6.80;;
48403;SDS011;34202;52.536;6.042;2023-09-07T05:07:46;6.60;;;5.90;;
48403;SDS011;34202;52.536;6.042;2023-09-07T05:12:46;8.10;;;5.70;;
48403;SDS011;34202;52.536;6.042;2023-09-07T05:17:47;8.30;;;5.80;;
48403;SDS011;34202;52.536;6.042;2023-09-07T05:22:47;7.80;;;6.60;;
48403;SDS011;34202;52.536;6.042;2023-09-07T05:27:47;7.00;;;5.90;;
48403;SDS011;34202;52.536;6.042;2023-09-07T05:32:49;6.00;;;5.40;;
48403;SDS011;34202;52.536;6.042;2023-09-07T05:37:49;7.50;;;5.90;;
48403;SDS011;34202;52.536;6.042;2023-09-07T05:42:49;10.40;;;5.70;;
48403;SDS011;34202;52.536;6.042;2023-09-07T05:47:50;6.80;;;5.60;;
48403;SDS011;34202;52.536;6.042;2023-09-07T05:52:50;8.90;;;5.90;;
48403;SDS011;34202;52.536;6.042;2023-09-07T05:57:53;6.70;;;6.10;;
48403;SDS011;34202;52.536;6.042;2023-09-07T06:02:55;9.40;;;6.70;;
48403;SDS011;34202;52.536;6.042;2023-09-07T06:07:56;8.60;;;5.90;;
48403;SDS011;34202;52.536;6.042;2023-09-07T06:12:57;10.10;;;5.50;;
48403;SDS011;34202;52.536;6.042;2023-09-07T06:17:57;6.90;;;5.70;;
48403;SDS011;34202;52.536;6.042;2023-09-07T06:22:58;6.90;;;6.20;;
48403;SDS011;34202;52.536;6.042;2023-09-07T06:27:58;7.20;;;6.50;;
48403;SDS011;34202;52.536;6.042;2023-09-07T06:32:59;7.10;;;6.20;;
48403;SDS011;34202;52.536;6.042;2023-09-07T06:37:59;7.30;;;6.50;;
48403;SDS011;34202;52.536;6.042;2023-09-07T06:43:00;8.80;;;5.50;;
48403;SDS011;34202;52.536;6.042;2023-09-07T06:48:05;7.00;;;6.30;;
48403;SDS011;34202;52.536;6.042;2023-09-07T06:53:05;7.10;;;6.00;;
48403;SDS011;34202;52.536;6.042;2023-09-07T06:58:06;9.40;;;6.80;;
48403;SDS011;34202;52.536;6.042;2023-09-07T07:03:06;7.00;;;6.20;;
48403;SDS011;34202;52.536;6.042;2023-09-07T07:08:07;10.10;;;6.90;;
48403;SDS011;34202;52.536;6.042;2023-09-07T07:13:07;14.30;;;7.10;;
48403;SDS011;34202;52.536;6.042;2023-09-07T07:18:08;6.70;;;6.10;;
48403;SDS011;34202;52.536;6.042;2023-09-07T07:23:09;10.00;;;6.70;;
48403;SDS011;34202;52.536;6.042;2023-09-07T07:28:10;12.40;;;6.30;;
48403;SDS011;34202;52.536;6.042;2023-09-07T07:33:10;7.00;;;6.30;;
48403;SDS011;34202;52.536;6.042;2023-09-07T07:38:12;8.40;;;6.20;;
48403;SDS011;34202;52.536;6.042;2023-09-07T07:43:13;8.90;;;5.50;;
48403;SDS011;34202;52.536;6.042;2023-09-07T07:48:14;8.00;;;6.10;;
48403;SDS011;34202;52.536;6.042;2023-09-07T07:53:15;8.80;;;5.60;;
48403;SDS011;34202;52.536;6.042;2023-09-07T07:58:15;6.50;;;5.10;;
48403;SDS011;34202;52.536;6.042;2023-09-07T08:03:16;5.00;;;4.50;;
48403;SDS011;34202;52.536;6.042;2023-09-07T08:08:17;6.20;;;5.30;;
48403;SDS011;34202;52.536;6.042;2023-09-07T08:13:18;10.00;;;5.10;;
48403;SDS011;34202;52.536;6.042;2023-09-07T08:18:19;7.70;;;4.70;;
48403;SDS011;34202;52.536;6.042;2023-09-07T08:23:20;7.40;;;4.80;;
48403;SDS011;34202;52.536;6.042;2023-09-07T08:28:22;10.00;;;4.40;;
48403;SDS011;34202;52.536;6.042;2023-09-07T08:33:23;7.50;;;4.40;;
48403;SDS011;34202;52.536;6.042;2023-09-07T08:38:24;5.40;;;4.90;;
48403;SDS011;34202;52.536;6.042;2023-09-07T08:43:28;5.70;;;4.40;;
48403;SDS011;34202;52.536;6.042;2023-09-07T08:48:29;9.10;;;4.50;;
48403;SDS011;34202;52.536;6.042;2023-09-07T08:53:30;10.70;;;5.40;;
48403;SDS011;34202;52.536;6.042;2023-09-07T08:58:32;6.30;;;3.90;;
48403;SDS011;34202;52.536;6.042;2023-09-07T09:03:33;7.70;;;4.50;;
48403;SDS011;34202;52.536;6.042;2023-09-07T09:08:44;6.00;;;4.30;;
48403;SDS011;34202;52.536;6.042;2023-09-07T09:13:46;7.60;;;3.50;;
48403;SDS011;34202;52.536;6.042;2023-09-07T09:18:57;6.30;;;3.40;;
48403;SDS011;34202;52.536;6.042;2023-09-07T09:23:57;7.30;;;4.30;;
48403;SDS011;34202;52.536;6.042;2023-09-07T09:28:59;4.20;;;3.50;;
48403;SDS011;34202;52.536;6.042;2023-09-07T09:34:00;7.20;;;4.30;;
48403;SDS011;34202;52.536;6.042;2023-09-07T09:39:00;4.20;;;3.80;;
48403;SDS011;34202;52.536;6.042;2023-09-07T09:44:03;8.20;;;4.30;;
48403;SDS011;34202;52.536;6.042;2023-09-07T09:49:05;9.10;;;3.80;;
48403;SDS011;34202;52.536;6.042;2023-09-07T09:54:08;4.50;;;3.30;;
48403;SDS011;34202;52.536;6.042;2023-09-07T09:59:10;4.80;;;3.40;;
48403;SDS011;34202;52.536;6.042;2023-09-07T10:04:15;4.90;;;3.20;;
48403;SDS011;34202;52.536;6.042;2023-09-07T10:09:17;6.10;;;3.00;;
48403;SDS011;34202;52.536;6.042;2023-09-07T10:14:19;4.90;;;2.80;;
48403;SDS011;34202;52.536;6.042;2023-09-07T10:19:23;6.70;;;3.30;;
48403;SDS011;34202;52.536;6.042;2023-09-07T10:24:28;5.30;;;3.20;;
48403;SDS011;34202;52.536;6.042;2023-09-07T10:29:40;3.50;;;2.80;;
48403;SDS011;34202;52.536;6.042;2023-09-07T10:34:43;3.50;;;3.10;;
48403;SDS011;34202;52.536;6.042;2023-09-07T10:39:44;5.90;;;3.20;;
48403;SDS011;34202;52.536;6.042;2023-09-07T10:44:45;3.30;;;2.90;;
48403;SDS011;34202;52.536;6.042;2023-09-07T10:49:45;6.70;;;3.20;;
48403;SDS011;34202;52.536;6.042;2023-09-07T10:54:55;7.40;;;2.80;;
48403;SDS011;34202;52.536;6.042;2023-09-07T10:59:57;6.40;;;2.80;;
48403;SDS011;34202;52.536;6.042;2023-09-07T11:04:58;3.40;;;3.10;;
48403;SDS011;34202;52.536;6.042;2023-09-07T11:09:58;6.40;;;3.20;;
48403;SDS011;34202;52.536;6.042;2023-09-07T11:14:59;3.70;;;3.40;;
48403;SDS011;34202;52.536;6.042;2023-09-07T11:20:02;3.20;;;2.90;;
48403;SDS011;34202;52.536;6.042;2023-09-07T11:25:06;5.40;;;2.50;;
48403;SDS011;34202;52.536;6.042;2023-09-07T11:30:07;3.00;;;2.80;;
48403;SDS011;34202;52.536;6.042;2023-09-07T11:35:10;2.80;;;2.50;;
48403;SDS011;34202;52.536;6.042;2023-09-07T11:40:10;6.00;;;3.00;;
48403;SDS011;34202;52.536;6.042;2023-09-07T11:45:12;6.20;;;2.70;;
48403;SDS011;34202;52.536;6.042;2023-09-07T11:50:13;3.10;;;2.80;;
48403;SDS011;34202;52.536;6.042;2023-09-07T11:55:17;4.10;;;2.50;;
48403;SDS011;34202;52.536;6.042;2023-09-07T12:00:18;3.20;;;2.90;;
48403;SDS011;34202;52.536;6.042;2023-09-07T12:05:18;5.10;;;2.40;;
48403;SDS011;34202;52.536;6.042;2023-09-07T12:10:19;5.00;;;3.00;;
48403;SDS011;34202;52.536;6.042;2023-09-07T12:15:20;2.90;;;2.70;;
48403;SDS011;34202;52.536;6.042;2023-09-07T12:20:21;3.40;;;2.90;;
48403;SDS011;34202;52.536;6.042;2023-09-07T12:25:21;4.30;;;2.50;;
48403;SDS011;34202;52.536;6.042;2023-09-07T12:30:22;4.30;;;2.50;;
48403;SDS011;34202;52.536;6.042;2023-09-07T12:35:23;4.00;;;3.10;;
48403;SDS011;34202;52.536;6.042;2023-09-07T12:40:24;6.00;;;2.60;;
48403;SDS011;34202;52.536;6.042;2023-09-07T12:45:24;3.80;;;3.00;;
48403;SDS011;34202;52.536;6.042;2023-09-07T12:50:25;4.10;;;2.70;;
48403;SDS011;34202;52.536;6.042;2023-09-07T12:55:25;6.00;;;2.60;;
48403;SDS011;34202;52.536;6.042;2023-09-07T13:00:26;4.60;;;3.10;;
48403;SDS011;34202;52.536;6.042;2023-09-07T13:05:28;3.10;;;2.70;;
48403;SDS011;34202;52.536;6.042;2023-09-07T13:10:29;2.30;;;2.10;;
48403;SDS011;34202;52.536;6.042;2023-09-07T13:15:29;3.90;;;2.60;;
48403;SDS011;34202;52.536;6.042;2023-09-07T13:20:30;2.60;;;2.40;;
48403;SDS011;34202;52.536;6.042;2023-09-07T13:25:30;4.40;;;2.30;;
48403;SDS011;34202;52.536;6.042;2023-09-07T13:30:31;3.50;;;2.50;;
48403;SDS011;34202;52.536;6.042;2023-09-07T13:35:31;3.90;;;2.50;;
48403;SDS011;34202;52.536;6.042;2023-09-07T13:40:32;2.80;;;2.50;;
48403;SDS011;34202;52.536;6.042;2023-09-07T13:45:32;4.40;;;2.80;;
48403;SDS011;34202;52.536;6.042;2023-09-07T13:50:33;6.40;;;2.20;;
48403;SDS011;34202;52.536;6.042;2023-09-07T13:55:33;3.10;;;2.60;;
48403;SDS011;34202;52.536;6.042;2023-09-07T14:00:35;6.00;;;2.60;;
48403;SDS011;34202;52.536;6.042;2023-09-07T14:05:35;2.40;;;2.20;;
48403;SDS011;34202;52.536;6.042;2023-09-07T14:10:36;2.90;;;2.60;;
48403;SDS011;34202;52.536;6.042;2023-09-07T14:15:36;2.90;;;2.40;;
48403;SDS011;34202;52.536;6.042;2023-09-07T14:20:36;3.20;;;2.90;;
48403;SDS011;34202;52.536;6.042;2023-09-07T14:25:37;2.90;;;2.60;;
48403;SDS011;34202;52.536;6.042;2023-09-07T14:30:41;3.50;;;3.20;;
48403;SDS011;34202;52.536;6.042;2023-09-07T14:35:42;4.70;;;3.80;;
48403;SDS011;34202;52.536;6.042;2023-09-07T14:40:42;5.60;;;2.80;;
48403;SDS011;34202;52.536;6.042;2023-09-07T14:45:43;6.40;;;4.00;;
48403;SDS011;34202;52.536;6.042;2023-09-07T14:50:44;3.30;;;2.80;;
48403;SDS011;34202;52.536;6.042;2023-09-07T14:55:44;5.10;;;3.60;;
48403;SDS011;34202;52.536;6.042;2023-09-07T15:00:45;3.70;;;2.50;;
48403;SDS011;34202;52.536;6.042;2023-09-07T15:05:45;5.50;;;2.50;;
48403;SDS011;34202;52.536;6.042;2023-09-07T15:10:45;6.10;;;2.40;;
48403;SDS011;34202;52.536;6.042;2023-09-07T15:15:46;3.30;;;3.00;;
48403;SDS011;34202;52.536;6.042;2023-09-07T15:20:46;8.80;;;3.00;;
48403;SDS011;34202;52.536;6.042;2023-09-07T15:25:46;2.80;;;2.50;;
48403;SDS011;34202;52.536;6.042;2023-09-07T15:30:47;9.00;;;7.20;;
48403;SDS011;34202;52.536;6.042;2023-09-07T15:35:47;20.30;;;18.50;;
48403;SDS011;34202;52.536;6.042;2023-09-07T15:40:48;3.80;;;2.90;;
48403;SDS011;34202;52.536;6.042;2023-09-07T15:45:48;5.50;;;2.50;;
48403;SDS011;34202;52.536;6.042;2023-09-07T15:50:49;3.60;;;2.60;;
48403;SDS011;34202;52.536;6.042;2023-09-07T15:55:49;3.10;;;2.30;;
48403;SDS011;34202;52.536;6.042;2023-09-07T16:00:49;6.60;;;2.60;;
48403;SDS011;34202;52.536;6.042;2023-09-07T16:05:50;2.50;;;2.30;;
48403;SDS011;34202;52.536;6.042;2023-09-07T16:10:53;13.10;;;2.90;;
48403;SDS011;34202;52.536;6.042;2023-09-07T16:15:54;4.20;;;2.80;;
48403;SDS011;34202;52.536;6.042;2023-09-07T16:20:55;7.30;;;2.90;;
48403;SDS011;34202;52.536;6.042;2023-09-07T16:25:55;6.60;;;3.20;;
48403;SDS011;34202;52.536;6.042;2023-09-07T16:30:56;6.70;;;3.00;;
48403;SDS011;34202;52.536;6.042;2023-09-07T16:35:57;5.80;;;2.40;;
48403;SDS011;34202;52.536;6.042;2023-09-07T16:41:05;5.80;;;3.00;;
48403;SDS011;34202;52.536;6.042;2023-09-07T16:46:06;4.60;;;3.80;;
48403;SDS011;34202;52.536;6.042;2023-09-07T16:51:07;4.20;;;2.70;;
48403;SDS011;34202;52.536;6.042;2023-09-07T16:56:07;3.60;;;2.60;;
48403;SDS011;34202;52.536;6.042;2023-09-07T17:01:08;2.60;;;2.40;;
48403;SDS011;34202;52.536;6.042;2023-09-07T17:06:09;4.70;;;2.70;;
48403;SDS011;34202;52.536;6.042;2023-09-07T17:11:09;5.80;;;2.90;;
48403;SDS011;34202;52.536;6.042;2023-09-07T17:16:10;10.50;;;2.80;;
48403;SDS011;34202;52.536;6.042;2023-09-07T17:21:10;5.00;;;2.90;;
48403;SDS011;34202;52.536;6.042;2023-09-07T17:26:11;3.00;;;2.80;;
48403;SDS011;34202;52.536;6.042;2023-09-07T17:31:12;3.90;;;3.00;;
48403;SDS011;34202;52.536;6.042;2023-09-07T17:36:16;3.70;;;2.90;;
48403;SDS011;34202;52.536;6.042;2023-09-07T17:41:41;7.00;;;3.00;;
48403;SDS011;34202;52.536;6.042;2023-09-07T17:46:40;5.90;;;3.00;;
48403;SDS011;34202;52.536;6.042;2023-09-07T17:51:41;4.30;;;2.80;;
48403;SDS011;34202;52.536;6.042;2023-09-07T17:56:41;4.20;;;2.80;;
48403;SDS011;34202;52.536;6.042;2023-09-07T18:01:41;3.90;;;2.90;;
48403;SDS011;34202;52.536;6.042;2023-09-07T18:06:42;7.60;;;3.10;;
48403;SDS011;34202;52.536;6.042;2023-09-07T18:11:42;4.10;;;3.30;;
48403;SDS011;34202;52.536;6.042;2023-09-07T18:16:46;5.10;;;3.60;;
48403;SDS011;34202;52.536;6.042;2023-09-07T18:21:47;4.90;;;3.40;;
48403;SDS011;34202;52.536;6.042;2023-09-07T18:26:47;4.30;;;2.80;;
48403;SDS011;34202;52.536;6.042;2023-09-07T18:31:47;3.70;;;3.30;;
48403;SDS011;34202;52.536;6.042;2023-09-07T18:36:48;4.80;;;2.90;;
48403;SDS011;34202;52.536;6.042;2023-09-07T18:41:48;9.40;;;3.30;;
48403;SDS011;34202;52.536;6.042;2023-09-07T18:46:51;4.40;;;3.20;;
48403;SDS011;34202;52.536;6.042;2023-09-07T18:51:51;6.00;;;3.00;;
48403;SDS011;34202;52.536;6.042;2023-09-07T18:56:52;4.80;;;3.30;;
48403;SDS011;34202;52.536;6.042;2023-09-07T19:01:52;3.20;;;2.90;;
48403;SDS011;34202;52.536;6.042;2023-09-07T19:06:53;4.90;;;3.30;;
48403;SDS011;34202;52.536;6.042;2023-09-07T19:11:54;4.00;;;3.30;;
48403;SDS011;34202;52.536;6.042;2023-09-07T19:16:55;8.70;;;4.00;;
48403;SDS011;34202;52.536;6.042;2023-09-07T19:21:55;5.50;;;3.60;;
48403;SDS011;34202;52.536;6.042;2023-09-07T19:26:55;4.50;;;3.30;;
48403;SDS011;34202;52.536;6.042;2023-09-07T19:31:56;9.10;;;3.40;;
48403;SDS011;34202;52.536;6.042;2023-09-07T19:36:56;4.20;;;3.00;;
48403;SDS011;34202;52.536;6.042;2023-09-07T19:41:57;4.20;;;3.00;;
48403;SDS011;34202;52.536;6.042;2023-09-07T19:46:57;4.20;;;3.70;;
48403;SDS011;34202;52.536;6.042;2023-09-07T19:52:00;4.40;;;3.40;;
48403;SDS011;34202;52.536;6.042;2023-09-07T19:57:00;8.30;;;3.80;;
48403;SDS011;34202;52.536;6.042;2023-09-07T20:02:01;5.30;;;3.20;;
48403;SDS011;34202;52.536;6.042;2023-09-07T20:07:02;6.20;;;3.60;;
48403;SDS011;34202;52.536;6.042;2023-09-07T20:12:03;7.30;;;3.40;;
48403;SDS011;34202;52.536;6.042;2023-09-07T20:17:04;5.20;;;3.30;;
48403;SDS011;34202;52.536;6.042;2023-09-07T20:22:04;4.30;;;2.90;;
48403;SDS011;34202;52.536;6.042;2023-09-07T20:27:05;4.80;;;3.80;;
48403;SDS011;34202;52.536;6.042;2023-09-07T20:32:05;5.10;;;3.60;;
48403;SDS011;34202;52.536;6.042;2023-09-07T20:37:05;6.40;;;3.80;;
48403;SDS011;34202;52.536;6.042;2023-09-07T20:42:06;5.10;;;3.70;;
48403;SDS011;34202;52.536;6.042;2023-09-07T20:47:07;4.70;;;3.50;;
48403;SDS011;34202;52.536;6.042;2023-09-07T20:52:08;4.70;;;3.90;;
48403;SDS011;34202;52.536;6.042;2023-09-07T20:57:08;6.00;;;4.30;;
48403;SDS011;34202;52.536;6.042;2023-09-07T21:02:08;5.40;;;4.00;;
48403;SDS011;34202;52.536;6.042;2023-09-07T21:07:09;7.30;;;4.30;;
48403;SDS011;34202;52.536;6.042;2023-09-07T21:12:09;8.70;;;4.10;;
48403;SDS011;34202;52.536;6.042;2023-09-07T21:17:10;7.60;;;4.50;;
48403;SDS011;34202;52.536;6.042;2023-09-07T21:22:11;7.30;;;4.00;;
48403;SDS011;34202;52.536;6.042;2023-09-07T21:27:11;6.80;;;5.20;;
48403;SDS011;34202;52.536;6.042;2023-09-07T21:32:12;4.50;;;4.10;;
48403;SDS011;34202;52.536;6.042;2023-09-07T21:37:12;4.90;;;3.90;;
48403;SDS011;34202;52.536;6.042;2023-09-07T21:42:13;6.20;;;3.90;;
48403;SDS011;34202;52.536;6.042;2023-09-07T21:47:13;4.60;;;4.20;;
48403;SDS011;34202;52.536;6.042;2023-09-07T21:52:14;6.60;;;3.80;;
48403;SDS011;34202;52.536;6.042;2023-09-07T21:57:14;8.50;;;4.30;;
48403;SDS011;34202;52.536;6.042;2023-09-07T22:02:16;4.20;;;3.80;;
48403;SDS011;34202;52.536;6.042;2023-09-07T22:07:17;6.20;;;4.60;;
48403;SDS011;34202;52.536;6.042;2023-09-07T22:12:18;4.50;;;4.10;;
48403;SDS011;34202;52.536;6.042;2023-09-07T22:17:19;5.80;;;4.30;;
48403;SDS011;34202;52.536;6.042;2023-09-07T22:22:19;5.10;;;4.20;;
48403;SDS011;34202;52.536;6.042;2023-09-07T22:27:19;4.20;;;3.80;;
48403;SDS011;34202;52.536;6.042;2023-09-07T22:32:20;4.90;;;4.00;;
48403;SDS011;34202;52.536;6.042;2023-09-07T22:37:20;8.60;;;4.70;;
48403;SDS011;34202;52.536;6.042;2023-09-07T22:42:21;5.20;;;4.50;;
48403;SDS011;34202;52.536;6.042;2023-09-07T22:47:21;7.00;;;3.70;;
48403;SDS011;34202;52.536;6.042;2023-09-07T22:52:22;5.20;;;4.10;;
48403;SDS011;34202;52.536;6.042;2023-09-07T22:57:22;4.70;;;4.30;;
48403;SDS011;34202;52.536;6.042;2023-09-07T23:02:22;8.20;;;4.60;;
48403;SDS011;34202;52.536;6.042;2023-09-07T23:07:23;7.40;;;4.80;;
48403;SDS011;34202;52.536;6.042;2023-09-07T23:12:23;7.90;;;3.80;;
48403;SDS011;34202;52.536;6.042;2023-09-07T23:17:26;8.50;;;4.60;;
48403;SDS011;34202;52.536;6.042;2023-09-07T23:22:26;5.30;;;4.70;;
48403;SDS011;34202;52.536;6.042;2023-09-07T23:27:26;5.90;;;4.80;;
48403;SDS011;34202;52.536;6.042;2023-09-07T23:32:27;9.00;;;6.00;;
48403;SDS011;34202;52.536;6.042;2023-09-07T23:37:27;7.10;;;4.70;;
48403;SDS011;34202;52.536;6.042;2023-09-07T23:42:28;6.60;;;5.40;;
48403;SDS011;34202;52.536;6.042;2023-09-07T23:47:29;10.20;;;5.30;;
48403;SDS011;34202;52.536;6.042;2023-09-07T23:52:29;8.10;;;5.20;;
48403;SDS011;34202;52.536;6.042;2023-09-07T23:57:30;7.00;;;5.80;;
